sensor_id;sensor_type;location;lat;lon;timestamp;pressure;altitude;pressure_sealevel;temperature;humidity
15489;BME280;7846;48.830;9.116;2022-10-16T00:01:25;97708.31;;;24.63;55.04
15489;BME280;7846;48.830;9.116;2022-10-16T00:03:52;97704.34;;;24.49;55.33
15489;BME280;7846;48.830;9.116;2022-10-16T00:06:19;97694.25;;;24.39;55.61
15489;BME280;7846;48.830;9.116;2022-10-16T00:08:46;97698.75;;;24.33;56.01
15489;BME280;7846;48.830;9.116;2022-10-16T00:11:17;97691.94;;;24.09;56.54
15489;BME280;7846;48.830;9.116;2022-10-16T00:13:44;97695.28;;;24.38;55.37
15489;BME280;7846;48.830;9.116;2022-10-16T00:16:11;97702.97;;;24.46;55.32
15489;BME280;7846;48.830;9.116;2022-10-16T00:18:37;97694.19;;;24.17;55.84
15489;BME280;7846;48.830;9.116;2022-10-16T00:21:05;97700.63;;;24.33;55.60
15489;BME280;7846;48.830;9.116;2022-10-16T00:23:32;97697.75;;;24.39;55.50
15489;BME280;7846;48.830;9.116;2022-10-16T00:25:59;97694.25;;;24.39;55.40
15489;BME280;7846;48.830;9.116;2022-10-16T00:28:27;97694.72;;;24.53;55.24
15489;BME280;7846;48.830;9.116;2022-10-16T00:30:53;97699.41;;;24.41;55.16
15489;BME280;7846;48.830;9.116;2022-10-16T00:33:20;97695.59;;;24.03;56.50
15489;BME280;7846;48.830;9.116;2022-10-16T00:35:47;97698.91;;;23.88;56.53
15489;BME280;7846;48.830;9.116;2022-10-16T00:38:13;97705.41;;;23.75;56.74
15489;BME280;7846;48.830;9.116;2022-10-16T00:40:39;97707.16;;;24.20;55.93
15489;BME280;7846;48.830;9.116;2022-10-16T00:43:45;97706.09;;;24.21;55.17
15489;BME280;7846;48.830;9.116;2022-10-16T00:46:19;97704.56;;;23.91;56.03
15489;BME280;7846;48.830;9.116;2022-10-16T00:49:02;97708.75;;;24.55;54.91
15489;BME280;7846;48.830;9.116;2022-10-16T00:51:37;97697.09;;;24.49;54.92
15489;BME280;7846;48.830;9.116;2022-10-16T00:54:09;97702.22;;;24.51;54.93
15489;BME280;7846;48.830;9.116;2022-10-16T00:56:35;97696.94;;;24.39;55.12
15489;BME280;7846;48.830;9.116;2022-10-16T00:59:03;97698.84;;;24.22;55.39
15489;BME280;7846;48.830;9.116;2022-10-16T01:01:31;97699.34;;;24.02;56.24
15489;BME280;7846;48.830;9.116;2022-10-16T01:03:58;97713.50;;;24.48;55.07
15489;BME280;7846;48.830;9.116;2022-10-16T01:06:53;97722.06;;;24.45;54.74
15489;BME280;7846;48.830;9.116;2022-10-16T01:12:14;97718.00;;;24.86;54.14
15489;BME280;7846;48.830;9.116;2022-10-16T01:14:48;97728.13;;;24.79;54.29
15489;BME280;7846;48.830;9.116;2022-10-16T01:20:10;97713.06;;;24.78;54.39
15489;BME280;7846;48.830;9.116;2022-10-16T01:25:11;97712.91;;;24.90;54.08
15489;BME280;7846;48.830;9.116;2022-10-16T01:27:39;97714.56;;;24.30;55.29
15489;BME280;7846;48.830;9.116;2022-10-16T01:30:17;97728.44;;;24.60;54.45
15489;BME280;7846;48.830;9.116;2022-10-16T01:32:52;97708.03;;;24.65;54.57
15489;BME280;7846;48.830;9.116;2022-10-16T01:38:08;97708.84;;;24.65;54.11
15489;BME280;7846;48.830;9.116;2022-10-16T01:40:39;97718.50;;;24.83;53.70
15489;BME280;7846;48.830;9.116;2022-10-16T01:43:12;97712.66;;;24.69;53.70
15489;BME280;7846;48.830;9.116;2022-10-16T01:45:42;97710.13;;;24.02;55.35
15489;BME280;7846;48.830;9.116;2022-10-16T01:48:12;97706.97;;;24.87;53.70
15489;BME280;7846;48.830;9.116;2022-10-16T01:50:41;97711.41;;;24.77;53.59
15489;BME280;7846;48.830;9.116;2022-10-16T01:53:10;97707.66;;;25.00;53.22
15489;BME280;7846;48.830;9.116;2022-10-16T01:58:14;97702.97;;;24.90;53.75
15489;BME280;7846;48.830;9.116;2022-10-16T02:00:42;97697.06;;;24.93;53.67
15489;BME280;7846;48.830;9.116;2022-10-16T02:03:10;97689.31;;;24.97;53.65
15489;BME280;7846;48.830;9.116;2022-10-16T02:05:41;97701.84;;;24.86;54.37
15489;BME280;7846;48.830;9.116;2022-10-16T02:08:08;97697.63;;;24.12;55.49
15489;BME280;7846;48.830;9.116;2022-10-16T02:10:35;97702.97;;;24.46;55.34
15489;BME280;7846;48.830;9.116;2022-10-16T02:13:06;97696.22;;;24.44;55.07
15489;BME280;7846;48.830;9.116;2022-10-16T02:15:34;97698.34;;;24.42;55.10
15489;BME280;7846;48.830;9.116;2022-10-16T02:18:01;97697.19;;;24.37;55.13
15489;BME280;7846;48.830;9.116;2022-10-16T02:20:33;97708.16;;;24.53;55.12
15489;BME280;7846;48.830;9.116;2022-10-16T02:23:03;97712.06;;;24.40;55.12
15489;BME280;7846;48.830;9.116;2022-10-16T02:25:34;97708.28;;;24.41;55.43
15489;BME280;7846;48.830;9.116;2022-10-16T02:28:07;97705.16;;;24.32;55.56
15489;BME280;7846;48.830;9.116;2022-10-16T02:30:38;97710.06;;;24.35;55.30
15489;BME280;7846;48.830;9.116;2022-10-16T02:33:09;97699.34;;;24.02;56.20
15489;BME280;7846;48.830;9.116;2022-10-16T02:35:35;97705.09;;;23.88;56.60
15489;BME280;7846;48.830;9.116;2022-10-16T02:38:02;97703.59;;;23.98;56.53
15489;BME280;7846;48.830;9.116;2022-10-16T02:40:28;97701.97;;;23.80;57.00
15489;BME280;7846;48.830;9.116;2022-10-16T02:42:54;97699.84;;;23.99;55.85
15489;BME280;7846;48.830;9.116;2022-10-16T02:45:20;97702.19;;;24.12;55.58
15489;BME280;7846;48.830;9.116;2022-10-16T02:47:46;97704.19;;;23.83;55.99
15489;BME280;7846;48.830;9.116;2022-10-16T02:50:12;97705.84;;;23.22;57.20
15489;BME280;7846;48.830;9.116;2022-10-16T02:52:37;97706.19;;;23.13;57.69
15489;BME280;7846;48.830;9.116;2022-10-16T02:55:03;97712.66;;;24.47;54.63
15489;BME280;7846;48.830;9.116;2022-10-16T02:57:28;97715.78;;;24.39;53.99
15489;BME280;7846;48.830;9.116;2022-10-16T02:59:59;97723.81;;;24.56;54.35
15489;BME280;7846;48.830;9.116;2022-10-16T03:02:24;97723.38;;;24.64;53.66
15489;BME280;7846;48.830;9.116;2022-10-16T03:04:51;97717.25;;;24.69;53.62
15489;BME280;7846;48.830;9.116;2022-10-16T03:07:19;97724.38;;;24.58;53.96
15489;BME280;7846;48.830;9.116;2022-10-16T03:09:44;97722.59;;;24.47;54.41
15489;BME280;7846;48.830;9.116;2022-10-16T03:12:11;97716.25;;;24.36;54.93
15489;BME280;7846;48.830;9.116;2022-10-16T03:14:37;97726.66;;;24.10;55.91
15489;BME280;7846;48.830;9.116;2022-10-16T03:17:02;97730.22;;;24.16;55.69
15489;BME280;7846;48.830;9.116;2022-10-16T03:19:27;97721.94;;;23.67;56.86
15489;BME280;7846;48.830;9.116;2022-10-16T03:21:53;97727.25;;;23.96;56.18
15489;BME280;7846;48.830;9.116;2022-10-16T03:24:18;97718.31;;;23.73;56.88
15489;BME280;7846;48.830;9.116;2022-10-16T03:26:44;97720.47;;;23.93;56.15
15489;BME280;7846;48.830;9.116;2022-10-16T03:29:10;97719.81;;;24.03;55.68
15489;BME280;7846;48.830;9.116;2022-10-16T03:31:35;97723.34;;;24.03;55.54
15489;BME280;7846;48.830;9.116;2022-10-16T03:34:02;97720.94;;;23.56;57.04
15489;BME280;7846;48.830;9.116;2022-10-16T03:36:30;97718.44;;;23.83;56.12
15489;BME280;7846;48.830;9.116;2022-10-16T03:38:57;97718.50;;;23.55;57.21
15489;BME280;7846;48.830;9.116;2022-10-16T03:41:23;97719.75;;;23.81;56.38
15489;BME280;7846;48.830;9.116;2022-10-16T03:43:48;97716.84;;;23.54;57.61
15489;BME280;7846;48.830;9.116;2022-10-16T03:46:14;97721.59;;;23.63;57.04
15489;BME280;7846;48.830;9.116;2022-10-16T03:48:40;97720.47;;;23.76;56.67
15489;BME280;7846;48.830;9.116;2022-10-16T03:51:05;97729.13;;;23.78;56.78
15489;BME280;7846;48.830;9.116;2022-10-16T03:53:32;97720.81;;;23.80;56.70
15489;BME280;7846;48.830;9.116;2022-10-16T03:55:57;97723.75;;;23.78;56.69
15489;BME280;7846;48.830;9.116;2022-10-16T03:58:23;97715.69;;;23.78;56.52
15489;BME280;7846;48.830;9.116;2022-10-16T04:00:49;97728.31;;;23.78;56.70
15489;BME280;7846;48.830;9.116;2022-10-16T04:03:17;97726.97;;;22.78;59.16
15489;BME280;7846;48.830;9.116;2022-10-16T04:06:02;97726.38;;;23.73;57.07
15489;BME280;7846;48.830;9.116;2022-10-16T04:08:28;97735.94;;;23.69;56.63
15489;BME280;7846;48.830;9.116;2022-10-16T04:10:54;97720.19;;;23.61;57.01
15489;BME280;7846;48.830;9.116;2022-10-16T04:13:19;97723.78;;;23.50;57.13
15489;BME280;7846;48.830;9.116;2022-10-16T04:15:45;97720.09;;;23.39;57.89
15489;BME280;7846;48.830;9.116;2022-10-16T04:18:12;97724.31;;;23.35;58.11
15489;BME280;7846;48.830;9.116;2022-10-16T04:20:37;97720.88;;;23.23;58.23
15489;BME280;7846;48.830;9.116;2022-10-16T04:23:03;97717.66;;;23.37;57.74
15489;BME280;7846;48.830;9.116;2022-10-16T04:25:29;97721.75;;;23.57;56.91
15489;BME280;7846;48.830;9.116;2022-10-16T04:27:54;97722.72;;;23.51;57.14
15489;BME280;7846;48.830;9.116;2022-10-16T04:30:20;97719.47;;;23.49;57.64
15489;BME280;7846;48.830;9.116;2022-10-16T04:32:52;97725.91;;;23.48;57.94
15489;BME280;7846;48.830;9.116;2022-10-16T04:35:21;97730.44;;;23.47;57.31
15489;BME280;7846;48.830;9.116;2022-10-16T04:37:46;97728.28;;;23.32;58.16
15489;BME280;7846;48.830;9.116;2022-10-16T04:44:11;97731.84;;;23.50;57.42
15489;BME280;7846;48.830;9.116;2022-10-16T04:46:36;97743.66;;;23.49;57.99
15489;BME280;7846;48.830;9.116;2022-10-16T04:49:02;97739.63;;;23.34;58.02
15489;BME280;7846;48.830;9.116;2022-10-16T04:51:27;97741.94;;;23.59;57.43
15489;BME280;7846;48.830;9.116;2022-10-16T04:53:54;97754.41;;;23.65;57.08
15489;BME280;7846;48.830;9.116;2022-10-16T04:56:20;97755.34;;;23.71;57.18
15489;BME280;7846;48.830;9.116;2022-10-16T04:58:48;97763.00;;;23.51;57.20
15489;BME280;7846;48.830;9.116;2022-10-16T05:01:13;97759.28;;;23.52;57.54
15489;BME280;7846;48.830;9.116;2022-10-16T05:03:38;97772.44;;;23.36;58.00
15489;BME280;7846;48.830;9.116;2022-10-16T05:06:08;97763.41;;;23.42;57.78
15489;BME280;7846;48.830;9.116;2022-10-16T05:08:34;97764.06;;;23.33;58.26
15489;BME280;7846;48.830;9.116;2022-10-16T05:11:00;97770.13;;;23.28;58.02
15489;BME280;7846;48.830;9.116;2022-10-16T05:13:26;97769.44;;;23.33;58.26
15489;BME280;7846;48.830;9.116;2022-10-16T05:16:01;97756.34;;;23.53;57.69
15489;BME280;7846;48.830;9.116;2022-10-16T05:18:26;97752.50;;;22.80;59.70
15489;BME280;7846;48.830;9.116;2022-10-16T05:20:52;97760.25;;;23.17;58.76
15489;BME280;7846;48.830;9.116;2022-10-16T05:23:17;97760.06;;;23.35;57.65
15489;BME280;7846;48.830;9.116;2022-10-16T05:25:42;97757.56;;;23.17;58.10
15489;BME280;7846;48.830;9.116;2022-10-16T05:28:08;97761.13;;;23.34;57.90
15489;BME280;7846;48.830;9.116;2022-10-16T05:30:37;97760.59;;;23.49;57.90
15489;BME280;7846;48.830;9.116;2022-10-16T05:33:02;97760.66;;;23.37;57.54
15489;BME280;7846;48.830;9.116;2022-10-16T05:35:27;97758.16;;;23.19;58.53
15489;BME280;7846;48.830;9.116;2022-10-16T05:37:55;97766.59;;;23.11;58.42
15489;BME280;7846;48.830;9.116;2022-10-16T05:40:22;97771.81;;;23.17;58.40
15489;BME280;7846;48.830;9.116;2022-10-16T05:42:49;97776.47;;;23.22;58.61
15489;BME280;7846;48.830;9.116;2022-10-16T05:45:18;97765.34;;;23.30;57.83
15489;BME280;7846;48.830;9.116;2022-10-16T05:47:43;97776.34;;;23.29;58.15
15489;BME280;7846;48.830;9.116;2022-10-16T05:50:14;97777.69;;;23.14;58.31
15489;BME280;7846;48.830;9.116;2022-10-16T05:52:39;97778.78;;;23.30;58.09
15489;BME280;7846;48.830;9.116;2022-10-16T05:55:05;97789.56;;;23.47;57.52
15489;BME280;7846;48.830;9.116;2022-10-16T05:57:30;97788.25;;;23.33;58.11
15489;BME280;7846;48.830;9.116;2022-10-16T05:59:56;97791.25;;;23.36;58.12
15489;BME280;7846;48.830;9.116;2022-10-16T06:02:21;97792.22;;;23.30;58.29
15489;BME280;7846;48.830;9.116;2022-10-16T06:04:51;97797.03;;;23.16;58.91
15489;BME280;7846;48.830;9.116;2022-10-16T06:07:19;97792.56;;;23.51;57.94
15489;BME280;7846;48.830;9.116;2022-10-16T06:09:50;97799.00;;;23.50;58.00
15489;BME280;7846;48.830;9.116;2022-10-16T06:12:18;97801.41;;;23.63;57.83
15489;BME280;7846;48.830;9.116;2022-10-16T06:14:44;97796.16;;;23.68;57.33
15489;BME280;7846;48.830;9.116;2022-10-16T06:17:10;97802.34;;;23.69;57.20
15489;BME280;7846;48.830;9.116;2022-10-16T06:19:36;97808.03;;;23.72;57.45
15489;BME280;7846;48.830;9.116;2022-10-16T06:22:03;97803.00;;;23.76;56.94
15489;BME280;7846;48.830;9.116;2022-10-16T06:24:29;97806.50;;;23.76;57.24
15489;BME280;7846;48.830;9.116;2022-10-16T06:26:54;97810.72;;;23.72;57.04
15489;BME280;7846;48.830;9.116;2022-10-16T06:29:21;97800.91;;;23.78;57.37
15489;BME280;7846;48.830;9.116;2022-10-16T06:31:47;97804.31;;;23.90;56.78
15489;BME280;7846;48.830;9.116;2022-10-16T06:34:15;97809.47;;;23.63;57.70
15489;BME280;7846;48.830;9.116;2022-10-16T06:36:41;97810.72;;;23.72;57.37
15489;BME280;7846;48.830;9.116;2022-10-16T06:39:06;97809.16;;;23.88;57.58
15489;BME280;7846;48.830;9.116;2022-10-16T06:41:35;97816.53;;;23.98;57.27
15489;BME280;7846;48.830;9.116;2022-10-16T06:44:05;97814.59;;;23.93;57.37
15489;BME280;7846;48.830;9.116;2022-10-16T06:46:30;97827.81;;;24.11;56.82
15489;BME280;7846;48.830;9.116;2022-10-16T06:48:55;97826.25;;;23.99;56.52
15489;BME280;7846;48.830;9.116;2022-10-16T06:51:24;97830.81;;;24.32;56.47
15489;BME280;7846;48.830;9.116;2022-10-16T06:53:54;97839.56;;;24.39;56.60
15489;BME280;7846;48.830;9.116;2022-10-16T06:56:25;97837.03;;;24.49;55.99
15489;BME280;7846;48.830;9.116;2022-10-16T06:58:52;97836.72;;;24.46;56.57
15489;BME280;7846;48.830;9.116;2022-10-16T07:01:21;97846.22;;;24.70;56.01
15489;BME280;7846;48.830;9.116;2022-10-16T07:03:47;97852.31;;;24.44;56.25
15489;BME280;7846;48.830;9.116;2022-10-16T07:06:15;97853.72;;;24.85;55.90
15489;BME280;7846;48.830;9.116;2022-10-16T07:08:43;97856.03;;;24.98;55.26
15489;BME280;7846;48.830;9.116;2022-10-16T07:11:11;97859.03;;;25.19;54.72
15489;BME280;7846;48.830;9.116;2022-10-16T07:13:38;97862.59;;;25.24;54.29
15489;BME280;7846;48.830;9.116;2022-10-16T07:16:23;97871.63;;;25.35;53.85
15489;BME280;7846;48.830;9.116;2022-10-16T07:18:49;97875.19;;;25.41;53.89
15489;BME280;7846;48.830;9.116;2022-10-16T07:21:20;97880.94;;;25.49;53.74
15489;BME280;7846;48.830;9.116;2022-10-16T07:23:51;97883.47;;;25.56;53.70
15489;BME280;7846;48.830;9.116;2022-10-16T07:26:17;97887.78;;;25.35;54.03
15489;BME280;7846;48.830;9.116;2022-10-16T07:28:43;97883.16;;;25.30;54.35
15489;BME280;7846;48.830;9.116;2022-10-16T07:31:11;97890.47;;;25.35;54.30
15489;BME280;7846;48.830;9.116;2022-10-16T07:33:38;97895.09;;;25.40;53.98
15489;BME280;7846;48.830;9.116;2022-10-16T07:36:03;97897.13;;;25.27;54.04
15489;BME280;7846;48.830;9.116;2022-10-16T07:38:29;97892.38;;;25.34;54.03
15489;BME280;7846;48.830;9.116;2022-10-16T07:40:59;97895.94;;;25.40;54.43
15489;BME280;7846;48.830;9.116;2022-10-16T07:43:25;97887.16;;;25.50;54.00
15489;BME280;7846;48.830;9.116;2022-10-16T07:45:54;97890.97;;;25.54;54.19
15489;BME280;7846;48.830;9.116;2022-10-16T07:48:21;97898.38;;;25.20;54.60
15489;BME280;7846;48.830;9.116;2022-10-16T07:50:47;97899.81;;;25.27;54.73
15489;BME280;7846;48.830;9.116;2022-10-16T07:53:15;97898.38;;;25.42;54.21
15489;BME280;7846;48.830;9.116;2022-10-16T07:55:43;97906.19;;;25.87;53.64
15489;BME280;7846;48.830;9.116;2022-10-16T07:58:10;97910.53;;;26.15;53.22
15489;BME280;7846;48.830;9.116;2022-10-16T08:00:37;97916.38;;;26.34;53.30
15489;BME280;7846;48.830;9.116;2022-10-16T08:03:04;97910.34;;;26.54;52.48
15489;BME280;7846;48.830;9.116;2022-10-16T08:05:31;97916.22;;;26.78;51.86
15489;BME280;7846;48.830;9.116;2022-10-16T08:07:57;97916.91;;;27.00;50.91
15489;BME280;7846;48.830;9.116;2022-10-16T08:10:24;97912.81;;;26.93;51.76
15489;BME280;7846;48.830;9.116;2022-10-16T08:12:51;97921.13;;;27.29;51.01
15489;BME280;7846;48.830;9.116;2022-10-16T08:15:17;97917.91;;;26.52;51.82
15489;BME280;7846;48.830;9.116;2022-10-16T08:17:42;97919.19;;;27.19;51.55
15489;BME280;7846;48.830;9.116;2022-10-16T08:20:08;97914.16;;;27.43;50.90
15489;BME280;7846;48.830;9.116;2022-10-16T08:22:34;97917.78;;;27.64;49.59
15489;BME280;7846;48.830;9.116;2022-10-16T08:24:59;97930.97;;;27.50;49.35
15489;BME280;7846;48.830;9.116;2022-10-16T08:27:25;97932.78;;;27.97;48.85
15489;BME280;7846;48.830;9.116;2022-10-16T08:29:50;97945.78;;;28.10;48.65
15489;BME280;7846;48.830;9.116;2022-10-16T08:32:16;97947.44;;;28.11;48.51
15489;BME280;7846;48.830;9.116;2022-10-16T08:34:43;97945.31;;;28.34;47.98
15489;BME280;7846;48.830;9.116;2022-10-16T08:37:09;97945.34;;;28.64;47.73
15489;BME280;7846;48.830;9.116;2022-10-16T08:39:36;97960.25;;;28.82;47.40
15489;BME280;7846;48.830;9.116;2022-10-16T08:42:20;97953.44;;;29.21;46.68
15489;BME280;7846;48.830;9.116;2022-10-16T08:45:06;97949.56;;;29.42;46.91
15489;BME280;7846;48.830;9.116;2022-10-16T08:50:39;97950.63;;;29.51;46.67
15489;BME280;7846;48.830;9.116;2022-10-16T08:53:06;97953.31;;;29.61;45.78
15489;BME280;7846;48.830;9.116;2022-10-16T08:55:41;97956.44;;;28.93;45.13
15489;BME280;7846;48.830;9.116;2022-10-16T08:58:14;97949.59;;;29.37;43.74
15489;BME280;7846;48.830;9.116;2022-10-16T09:00:41;97952.94;;;28.78;44.86
15489;BME280;7846;48.830;9.116;2022-10-16T09:05:57;97948.06;;;26.76;47.88
15489;BME280;7846;48.830;9.116;2022-10-16T09:11:27;97945.78;;;28.00;46.27
15489;BME280;7846;48.830;9.116;2022-10-16T09:14:30;97950.34;;;27.32;46.58
15489;BME280;7846;48.830;9.116;2022-10-16T09:20:45;97946.69;;;29.08;44.21
15489;BME280;7846;48.830;9.116;2022-10-16T09:23:30;97967.72;;;28.09;45.27
15489;BME280;7846;48.830;9.116;2022-10-16T09:25:57;97958.53;;;27.47;46.71
15489;BME280;7846;48.830;9.116;2022-10-16T09:28:23;97965.09;;;27.14;46.47
15489;BME280;7846;48.830;9.116;2022-10-16T09:30:49;97973.81;;;26.51;46.88
15489;BME280;7846;48.830;9.116;2022-10-16T09:33:16;97962.88;;;27.53;46.06
15489;BME280;7846;48.830;9.116;2022-10-16T09:35:48;97963.69;;;28.11;45.13
15489;BME280;7846;48.830;9.116;2022-10-16T09:38:41;97969.88;;;27.44;46.44
15489;BME280;7846;48.830;9.116;2022-10-16T09:41:15;97972.59;;;28.17;44.32
15489;BME280;7846;48.830;9.116;2022-10-16T09:43:58;97969.34;;;28.05;44.88
15489;BME280;7846;48.830;9.116;2022-10-16T09:46:35;97974.59;;;28.57;44.13
15489;BME280;7846;48.830;9.116;2022-10-16T09:49:28;97978.06;;;29.39;42.43
15489;BME280;7846;48.830;9.116;2022-10-16T09:52:25;97987.25;;;29.59;43.29
15489;BME280;7846;48.830;9.116;2022-10-16T09:55:02;97998.75;;;30.05;41.82
15489;BME280;7846;48.830;9.116;2022-10-16T09:57:52;97998.50;;;30.91;42.01
15489;BME280;7846;48.830;9.116;2022-10-16T10:00:18;98007.88;;;30.30;41.97
15489;BME280;7846;48.830;9.116;2022-10-16T10:02:44;97999.19;;;29.53;42.98
15489;BME280;7846;48.830;9.116;2022-10-16T10:05:27;98004.00;;;30.41;40.95
15489;BME280;7846;48.830;9.116;2022-10-16T10:08:01;98010.19;;;31.20;41.68
15489;BME280;7846;48.830;9.116;2022-10-16T10:10:32;98020.78;;;31.22;41.98
15489;BME280;7846;48.830;9.116;2022-10-16T10:12:59;98011.97;;;31.59;41.57
15489;BME280;7846;48.830;9.116;2022-10-16T10:15:25;98019.31;;;31.64;41.48
15489;BME280;7846;48.830;9.116;2022-10-16T10:17:55;98026.34;;;33.07;39.56
15489;BME280;7846;48.830;9.116;2022-10-16T10:20:33;98016.59;;;32.49;40.17
15489;BME280;7846;48.830;9.116;2022-10-16T10:23:00;98015.63;;;32.59;39.94
15489;BME280;7846;48.830;9.116;2022-10-16T10:25:42;98024.91;;;32.77;40.01
15489;BME280;7846;48.830;9.116;2022-10-16T10:28:25;98017.69;;;33.19;38.77
15489;BME280;7846;48.830;9.116;2022-10-16T10:31:25;98019.38;;;33.15;38.22
15489;BME280;7846;48.830;9.116;2022-10-16T10:37:35;98022.25;;;33.23;37.21
15489;BME280;7846;48.830;9.116;2022-10-16T10:40:21;98027.50;;;32.68;38.62
15489;BME280;7846;48.830;9.116;2022-10-16T10:43:10;98021.69;;;32.56;38.73
15489;BME280;7846;48.830;9.116;2022-10-16T10:45:46;98020.88;;;30.33;39.94
15489;BME280;7846;48.830;9.116;2022-10-16T10:48:19;98022.78;;;30.82;39.47
15489;BME280;7846;48.830;9.116;2022-10-16T10:51:07;98006.47;;;30.37;40.30
15489;BME280;7846;48.830;9.116;2022-10-16T10:54:04;97991.75;;;30.44;40.28
15489;BME280;7846;48.830;9.116;2022-10-16T10:56:50;98001.81;;;30.43;39.71
15489;BME280;7846;48.830;9.116;2022-10-16T11:02:00;98009.22;;;32.31;38.10
15489;BME280;7846;48.830;9.116;2022-10-16T11:04:36;98008.44;;;31.29;39.27
15489;BME280;7846;48.830;9.116;2022-10-16T11:07:16;98001.16;;;30.07;40.96
15489;BME280;7846;48.830;9.116;2022-10-16T11:09:49;98001.22;;;31.20;39.54
15489;BME280;7846;48.830;9.116;2022-10-16T11:12:21;98007.03;;;30.79;39.89
15489;BME280;7846;48.830;9.116;2022-10-16T11:17:40;98002.75;;;32.46;38.25
15489;BME280;7846;48.830;9.116;2022-10-16T11:20:37;98009.88;;;33.59;37.12
15489;BME280;7846;48.830;9.116;2022-10-16T11:25:39;98011.09;;;33.80;36.37
15489;BME280;7846;48.830;9.116;2022-10-16T11:30:44;98015.19;;;34.91;35.54
15489;BME280;7846;48.830;9.116;2022-10-16T11:33:24;98009.28;;;33.62;35.94
15489;BME280;7846;48.830;9.116;2022-10-16T11:41:35;98000.81;;;33.44;36.18
15489;BME280;7846;48.830;9.116;2022-10-16T11:44:19;97994.06;;;33.42;36.56
15489;BME280;7846;48.830;9.116;2022-10-16T11:47:33;97994.59;;;34.49;35.46
15489;BME280;7846;48.830;9.116;2022-10-16T11:50:20;98000.69;;;33.68;35.50
15489;BME280;7846;48.830;9.116;2022-10-16T11:53:18;97999.66;;;33.92;34.55
15489;BME280;7846;48.830;9.116;2022-10-16T11:55:48;98011.25;;;32.39;36.38
15489;BME280;7846;48.830;9.116;2022-10-16T12:03:40;97999.84;;;33.82;35.10
15489;BME280;7846;48.830;9.116;2022-10-16T12:09:04;97986.38;;;32.65;36.51
15489;BME280;7846;48.830;9.116;2022-10-16T12:11:38;97990.03;;;31.98;37.23
15489;BME280;7846;48.830;9.116;2022-10-16T12:14:16;97983.16;;;31.58;38.57
15489;BME280;7846;48.830;9.116;2022-10-16T12:16:57;97984.66;;;31.45;39.63
15489;BME280;7846;48.830;9.116;2022-10-16T12:19:27;97974.22;;;32.19;38.36
15489;BME280;7846;48.830;9.116;2022-10-16T12:21:55;97974.09;;;30.80;40.22
15489;BME280;7846;48.830;9.116;2022-10-16T12:24:53;97970.66;;;30.65;40.07
15489;BME280;7846;48.830;9.116;2022-10-16T12:27:29;97973.19;;;31.72;38.15
15489;BME280;7846;48.830;9.116;2022-10-16T12:30:00;97979.13;;;32.41;36.57
15489;BME280;7846;48.830;9.116;2022-10-16T12:35:57;97999.19;;;36.01;33.02
15489;BME280;7846;48.830;9.116;2022-10-16T12:38:37;97998.44;;;38.40;29.66
15489;BME280;7846;48.830;9.116;2022-10-16T12:41:07;98005.31;;;36.06;32.20
15489;BME280;7846;48.830;9.116;2022-10-16T12:43:45;98013.03;;;37.43;29.96
15489;BME280;7846;48.830;9.116;2022-10-16T12:48:38;98011.31;;;40.46;26.88
15489;BME280;7846;48.830;9.116;2022-10-16T13:05:42;98006.19;;;35.84;31.91
15489;BME280;7846;48.830;9.116;2022-10-16T13:08:25;98001.13;;;36.26;31.25
15489;BME280;7846;48.830;9.116;2022-10-16T13:11:07;97996.34;;;37.87;29.98
15489;BME280;7846;48.830;9.116;2022-10-16T13:26:54;97999.19;;;36.01;31.98
15489;BME280;7846;48.830;9.116;2022-10-16T13:29:31;97997.63;;;35.69;34.41
15489;BME280;7846;48.830;9.116;2022-10-16T13:31:58;97996.63;;;36.22;33.14
15489;BME280;7846;48.830;9.116;2022-10-16T13:34:27;97989.38;;;36.17;31.96
15489;BME280;7846;48.830;9.116;2022-10-16T13:36:53;97999.25;;;35.78;33.76
15489;BME280;7846;48.830;9.116;2022-10-16T13:39:29;97987.94;;;33.04;36.63
15489;BME280;7846;48.830;9.116;2022-10-16T13:42:11;97989.69;;;33.13;36.84
15489;BME280;7846;48.830;9.116;2022-10-16T13:44:41;97998.66;;;34.97;35.83
15489;BME280;7846;48.830;9.116;2022-10-16T13:47:17;98001.06;;;35.92;34.37
15489;BME280;7846;48.830;9.116;2022-10-16T13:49:44;97998.59;;;36.73;33.38
15489;BME280;7846;48.830;9.116;2022-10-16T13:52:20;98001.28;;;38.23;31.91
15489;BME280;7846;48.830;9.116;2022-10-16T13:54:46;98010.13;;;39.12;29.80
15489;BME280;7846;48.830;9.116;2022-10-16T13:57:17;98010.03;;;40.84;28.23
15489;BME280;7846;48.830;9.116;2022-10-16T13:59:46;98008.47;;;40.71;27.52
15489;BME280;7846;48.830;9.116;2022-10-16T14:02:21;98012.88;;;39.95;28.40
15489;BME280;7846;48.830;9.116;2022-10-16T14:04:47;98014.25;;;39.18;28.30
15489;BME280;7846;48.830;9.116;2022-10-16T14:07:20;98005.53;;;38.20;30.10
15489;BME280;7846;48.830;9.116;2022-10-16T14:09:49;98009.00;;;37.70;30.75
15489;BME280;7846;48.830;9.116;2022-10-16T14:12:15;97994.19;;;37.07;31.24
15489;BME280;7846;48.830;9.116;2022-10-16T14:14:43;98003.59;;;36.97;31.66
15489;BME280;7846;48.830;9.116;2022-10-16T14:19:57;98000.03;;;36.27;32.29
15489;BME280;7846;48.830;9.116;2022-10-16T14:22:28;98004.41;;;35.71;33.59
15489;BME280;7846;48.830;9.116;2022-10-16T14:28:21;98004.69;;;35.07;34.71
15489;BME280;7846;48.830;9.116;2022-10-16T14:30:56;98001.47;;;34.83;35.45
15489;BME280;7846;48.830;9.116;2022-10-16T14:33:32;98001.91;;;34.54;35.78
15489;BME280;7846;48.830;9.116;2022-10-16T14:36:03;98005.53;;;34.49;35.62
15489;BME280;7846;48.830;9.116;2022-10-16T14:38:30;98004.56;;;34.31;36.04
15489;BME280;7846;48.830;9.116;2022-10-16T14:40:58;97997.75;;;33.79;37.39
15489;BME280;7846;48.830;9.116;2022-10-16T14:43:39;98002.19;;;34.16;36.96
15489;BME280;7846;48.830;9.116;2022-10-16T14:46:12;98005.25;;;35.18;35.52
15489;BME280;7846;48.830;9.116;2022-10-16T14:48:48;98016.72;;;35.51;35.01
15489;BME280;7846;48.830;9.116;2022-10-16T14:51:15;98012.50;;;35.45;34.65
15489;BME280;7846;48.830;9.116;2022-10-16T14:53:41;98012.50;;;35.23;35.31
15489;BME280;7846;48.830;9.116;2022-10-16T14:56:31;98012.25;;;35.02;35.45
15489;BME280;7846;48.830;9.116;2022-10-16T14:58:59;98018.09;;;35.71;34.78
15489;BME280;7846;48.830;9.116;2022-10-16T15:01:25;98015.34;;;36.37;33.83
15489;BME280;7846;48.830;9.116;2022-10-16T15:03:51;98010.88;;;36.76;32.88
15489;BME280;7846;48.830;9.116;2022-10-16T15:06:18;98003.22;;;37.08;33.47